createdAt,value
2019-03-15T00:05:57.113Z,44.60
2019-03-15T00:19:19.950Z,44.80
2019-03-15T00:46:17.796Z,45.00
2019-03-15T00:59:25.101Z,45.30
2019-03-15T01:25:36.475Z,45.90
2019-03-15T01:38:43.724Z,46.00
2019-03-15T01:51:51.046Z,46.10
2019-03-15T02:04:58.458Z,46.30
2019-03-15T02:31:08.651Z,46.40
2019-03-15T02:44:16.082Z,46.50
2019-03-15T02:57:23.374Z,46.60
2019-03-15T03:10:30.814Z,46.70
2019-03-15T03:23:38.130Z,46.90
2019-03-15T03:37:01.950Z,47.00
2019-03-15T03:50:24.752Z,47.10
2019-03-15T04:03:47.615Z,47.20
2019-03-15T04:17:10.409Z,47.20
2019-03-15T04:30:33.224Z,47.30
2019-03-15T04:43:56.029Z,47.30
2019-03-15T04:57:18.855Z,47.20
2019-03-15T05:10:41.680Z,47.10
2019-03-15T05:24:04.481Z,47.10
2019-03-15T05:37:27.433Z,47.10
2019-03-15T05:50:50.107Z,47.10
2019-03-15T06:04:12.930Z,47.10
2019-03-15T06:17:35.752Z,47.20
2019-03-15T06:30:58.565Z,47.30
2019-03-15T06:44:21.403Z,47.30
2019-03-15T06:57:44.199Z,47.60
2019-03-15T07:11:07.015Z,47.60
2019-03-15T07:24:29.831Z,47.30
2019-03-15T07:37:52.633Z,45.20
2019-03-15T07:51:16.198Z,44.40
2019-03-15T08:04:38.279Z,43.50
2019-03-15T08:18:01.109Z,43.70
2019-03-15T08:31:24.001Z,44.10
2019-03-15T08:44:46.757Z,44.30
2019-03-15T08:58:13.312Z,45.20
2019-03-15T09:11:32.337Z,46.50
2019-03-15T09:24:55.205Z,46.70
2019-03-15T09:38:17.991Z,46.50
2019-03-15T09:51:40.803Z,45.20
2019-03-15T10:05:10.151Z,45.30
2019-03-15T10:18:26.549Z,45.40
2019-03-15T10:31:49.253Z,46.40
2019-03-15T10:45:12.074Z,45.60
2019-03-15T10:58:34.884Z,45.30
2019-03-15T11:11:57.697Z,45.20
2019-03-15T11:25:20.513Z,44.80
2019-03-15T11:38:43.362Z,45.40
2019-03-15T11:52:06.137Z,45.90
2019-03-15T12:05:28.948Z,46.30
2019-03-15T12:18:51.767Z,47.10
2019-03-15T12:32:14.592Z,47.00
2019-03-15T12:45:37.369Z,46.90
2019-03-15T12:59:00.211Z,46.40
2019-03-15T13:12:23.001Z,47.00
2019-03-15T13:25:45.950Z,46.90
2019-03-15T13:39:08.665Z,47.00
2019-03-15T13:52:31.478Z,47.10
2019-03-15T14:05:54.290Z,47.10
2019-03-15T14:19:17.092Z,46.90
2019-03-15T14:32:40.037Z,47.00
2019-03-15T14:46:02.844Z,47.10
2019-03-15T14:59:25.566Z,47.30
2019-03-15T15:12:48.388Z,47.30
2019-03-15T15:26:11.205Z,47.40
2019-03-15T15:39:34.210Z,47.30
2019-03-15T15:52:56.803Z,47.40
2019-03-15T16:06:19.647Z,47.40
2019-03-15T16:19:42.459Z,47.40
2019-03-15T16:33:05.306Z,47.60
2019-03-15T16:46:28.088Z,47.70
2019-03-15T16:59:50.898Z,47.80
2019-03-15T17:13:13.716Z,47.90
2019-03-15T17:26:36.536Z,47.90
2019-03-15T17:39:59.486Z,47.70
2019-03-15T18:06:23.828Z,45.90
2019-03-15T18:19:31.171Z,46.00
2019-03-15T18:32:38.479Z,46.30
2019-03-15T18:45:45.857Z,43.70
2019-03-15T18:58:53.412Z,42.90
2019-03-15T19:12:17.152Z,43.60
2019-03-15T19:38:41.895Z,44.20
2019-03-15T19:51:49.323Z,43.90
2019-03-15T20:04:56.634Z,44.20
2019-03-15T20:18:04.014Z,44.50
2019-03-15T20:31:11.390Z,44.70
2019-03-15T20:44:34.988Z,44.90
2019-03-15T20:57:57.776Z,44.90
2019-03-15T21:11:20.627Z,45.00
2019-03-15T21:24:43.400Z,45.10
2019-03-15T21:38:06.945Z,45.20
2019-03-15T21:51:29.045Z,45.30
2019-03-15T22:04:51.852Z,45.40
2019-03-15T22:18:14.706Z,45.40
2019-03-15T22:31:37.491Z,45.50
2019-03-15T22:45:00.398Z,45.50
2019-03-15T22:58:23.218Z,45.60
2019-03-15T23:11:45.909Z,45.70
2019-03-15T23:25:08.903Z,45.70
2019-03-15T23:38:31.717Z,45.80
2019-03-15T23:51:54.413Z,46.10
